Chino Valley, AZ

11:19 PM MST on September 26, 2016 (GMT -0700)
RhodesAZ, Consulting | | Change Station

Elev 4672 ft 34.77 °N, 112.46 °W | Updated 1 minute ago

Mostly Cloudy
Mostly Cloudy
60.8 °F
Feels Like 60.8 °F
N
0.0
Wind Variable Wind from South
Gusts 0.7 mph

Today
High -- | Low -- °F
--% Chance of Precip.
Yesterday
High -- | Low -- °F
Precip. -- in
Pressure 30.00 in
Visibility 10.0 miles
Clouds Mostly Cloudy 11000 ft
Dew Point 47 °F
Humidity 61%
Rainfall in
Snow Depth Not available.
6:21 AM 6:20 PM
Waning Crescent, 13% visible
METAR KPRC 270553Z AUTO 00000KT 10SM BKN110 17/07 A3022 RMK AO2 SLP159 T01670072 10261 20167 51007
Pressure 30.00 in
Visibility 10.0 miles
Clouds Mostly Cloudy 11000 ft
Dew Point 47 °F
Humidity 61%
Rainfall in
Snow Depth Not available.
6:21 AM 6:20 PM
Waning Crescent, 13% visible
METAR KPRC 270553Z AUTO 00000KT 10SM BKN110 17/07 A3022 RMK AO2 SLP159 T01670072 10261 20167 51007

10-Day Weather Forecast

Almanac

Astronomy

Sep. 26, 2016 Rise Set
Actual Time
Civil Twilight
Nautical Twilight
Astronomical Twilight
Moon
Length of Visible Light
Length of Day
Tomorrow will be .
, % of the Moon is Illuminated

Today's Extremes

State Highs State Lows

Community

WunderPhotos

Upload Photos

1,942,040 photos uploaded!

WunderBlog® & News

Nearby

Air Quality

  Air Quality AQ Index Pollutant
Not available.

Snow Depth

Station Depth Elevation

Earthquake Activity

City Distance Mag. Time & Date
Minimum magnitude displayed is 2.5.

Coastal Water Temperatures

Place Temperature

Stations

Nearby Weather Stations

Station Location Temp. Windchill Dew Point Humidity Wind Precip. Elev Updated Type
                   

Watches & Warnings

There are currently no watches in effect.